Time;durP1;ratioP1;P1;durP2;ratioP2;P2;SDS_P1;SDS_P2;PMS_P1;PMS_P2;Temp;Humidity;BMP_temperature;BMP_pressure;BME280_temperature;BME280_humidity;BME280_pressure;Samples;Min_cycle;Max_cycle;Signal;HPM_P1;HPM_P2
2023/07/13 00:00:15;;;;;;;1.85;0.88;;;;;;;-145.41;100.00;58600.66;4927764;29;20031;-74
2023/07/13 00:02:41;;;;;;;2.17;1.05;;;;;;;-145.41;100.00;58600.66;4936297;29;20024;-74
2023/07/13 00:05:07;;;;;;;2.38;0.90;;;;;;;-145.41;100.00;58600.66;4929475;29;20403;-74
2023/07/13 00:07:32;;;;;;;2.67;0.90;;;;;;;-145.41;100.00;58600.66;4930981;29;20071;-73
2023/07/13 00:09:59;;;;;;;3.58;1.35;;;;;;;-145.41;100.00;58600.66;4927327;29;20119;-73
2023/07/13 00:12:33;;;;;;;3.35;1.17;;;;;;;-145.41;100.00;58600.66;4933539;29;20062;-74
2023/07/13 00:15:01;;;;;;;3.55;1.00;;;;;;;-145.41;100.00;58600.66;4930342;29;20098;-74
2023/07/13 00:17:27;;;;;;;3.40;1.10;;;;;;;-145.41;100.00;58600.66;4931674;29;20073;-74
2023/07/13 00:19:52;;;;;;;3.00;1.00;;;;;;;-145.41;100.00;58600.66;4929170;29;20078;-74
2023/07/13 00:22:19;;;;;;;4.32;1.00;;;;;;;-145.41;100.00;58600.66;4932269;29;20043;-74
2023/07/13 00:24:44;;;;;;;2.35;1.02;;;;;;;-145.41;100.00;58600.66;4932630;29;20075;-74
2023/07/13 00:27:10;;;;;;;2.67;1.23;;;;;;;-145.41;100.00;58600.66;4929064;29;20075;-74
2023/07/13 00:29:36;;;;;;;2.88;0.90;;;;;;;-145.41;100.00;58600.66;4931806;29;20039;-74
2023/07/13 00:32:04;;;;;;;2.20;0.90;;;;;;;-145.41;100.00;58600.66;4930952;29;20495;-73
2023/07/13 00:34:29;;;;;;;3.53;1.30;;;;;;;-145.41;100.00;58600.66;4934383;29;20131;-74
2023/07/13 00:36:54;;;;;;;2.72;1.00;;;;;;;-145.41;100.00;58600.66;4945235;28;20114;-73
2023/07/13 00:39:20;;;;;;;2.50;1.05;;;;;;;-145.41;100.00;58600.66;4933040;29;20122;-74
2023/07/13 00:41:46;;;;;;;1.88;0.80;;;;;;;-145.41;100.00;58600.66;4943368;28;20024;-74
2023/07/13 00:44:16;;;;;;;4.03;1.08;;;;;;;-145.41;100.00;58600.66;4930182;29;20042;-74
2023/07/13 00:46:41;;;;;;;1.55;1.02;;;;;;;-145.41;100.00;58600.66;4937183;28;20396;-74
2023/07/13 00:49:10;;;;;;;4.72;1.20;;;;;;;-145.41;100.00;58600.66;4929965;29;20035;-74
2023/07/13 00:51:49;;;;;;;3.20;1.05;;;;;;;-145.41;100.00;58600.66;4943334;28;20032;-74
2023/07/13 00:54:20;;;;;;;3.70;1.38;;;;;;;-145.41;100.00;58600.66;4948131;29;20032;-74
2023/07/13 00:56:49;;;;;;;3.40;1.00;;;;;;;-145.41;100.00;58600.66;4929021;29;20505;-74
2023/07/13 00:59:17;;;;;;;3.50;1.20;;;;;;;-145.41;100.00;58600.66;4929994;29;20095;-74
2023/07/13 01:01:42;;;;;;;3.38;1.27;;;;;;;-145.41;100.00;58600.66;4930952;29;20039;-74
2023/07/13 01:04:08;;;;;;;2.58;1.25;;;;;;;-145.41;100.00;58600.66;4933394;29;20035;-74
2023/07/13 01:06:38;;;;;;;2.45;1.20;;;;;;;-145.41;100.00;58600.66;4947900;28;20043;-74
2023/07/13 01:09:06;;;;;;;2.08;0.93;;;;;;;-145.41;100.00;58600.66;4928816;29;20028;-74
2023/07/13 01:11:31;;;;;;;4.63;1.25;;;;;;;-145.41;100.00;58600.66;4929727;29;20040;-74
2023/07/13 01:13:57;;;;;;;3.90;1.42;;;;;;;-145.41;100.00;58600.66;4945345;28;20079;-74
2023/07/13 01:16:29;;;;;;;2.00;0.95;;;;;;;-145.41;100.00;58600.66;4929500;29;20031;-73
2023/07/13 01:18:58;;;;;;;3.90;1.70;;;;;;;-145.41;100.00;58600.66;4928870;29;21042;-74
2023/07/13 01:21:24;;;;;;;1.65;0.80;;;;;;;-145.41;100.00;58600.66;4946655;28;20036;-74
2023/07/13 01:23:49;;;;;;;4.53;1.10;;;;;;;-145.41;100.00;58600.66;4927740;29;20043;-74
2023/07/13 01:26:14;;;;;;;3.72;1.30;;;;;;;-145.41;100.00;58600.66;4940482;29;20123;-74
2023/07/13 01:28:40;;;;;;;3.53;1.33;;;;;;;-145.41;100.00;58600.66;4931072;29;20418;-74
2023/07/13 01:31:09;;;;;;;6.47;1.25;;;;;;;-145.41;100.00;58600.66;4930994;29;20039;-74
2023/07/13 01:33:36;;;;;;;3.88;1.30;;;;;;;-145.41;100.00;58600.66;4946146;28;20040;-74
2023/07/13 01:36:02;;;;;;;3.88;1.25;;;;;;;-145.41;100.00;58600.66;4947562;29;20034;-74
2023/07/13 01:38:27;;;;;;;2.53;1.10;;;;;;;-145.41;100.00;58600.66;4927034;29;20036;-74
2023/07/13 01:40:53;;;;;;;3.17;0.90;;;;;;;-145.41;100.00;58600.66;4928185;29;20511;-74
2023/07/13 01:43:19;;;;;;;2.25;1.10;;;;;;;-145.41;100.00;58600.66;4932769;29;20499;-74
2023/07/13 01:45:45;;;;;;;3.90;1.40;;;;;;;-145.41;100.00;58600.66;4935167;29;20032;-74
2023/07/13 01:48:12;;;;;;;3.60;1.23;;;;;;;-145.41;100.00;58600.66;4935207;29;20086;-74
2023/07/13 01:50:38;;;;;;;2.38;1.10;;;;;;;-145.41;100.00;58600.66;4935192;29;20035;-74
2023/07/13 01:53:04;;;;;;;2.50;0.88;;;;;;;-145.41;100.00;58600.66;4935516;29;20043;-74
2023/07/13 01:55:30;;;;;;;5.10;1.38;;;;;;;-145.41;100.00;58600.66;4933750;29;20075;-74
2023/07/13 01:57:56;;;;;;;3.17;1.20;;;;;;;-145.41;100.00;58600.66;4946856;28;20031;-73
2023/07/13 02:00:22;;;;;;;4.00;0.98;;;;;;;-145.41;100.00;58600.66;4950137;28;20490;-74
2023/07/13 02:02:47;;;;;;;3.83;1.20;;;;;;;-145.41;100.00;58600.66;4933492;29;20106;-74
2023/07/13 02:05:13;;;;;;;3.15;1.33;;;;;;;-145.41;100.00;58600.66;4933218;29;20106;-74
2023/07/13 02:07:40;;;;;;;2.55;1.33;;;;;;;-145.41;100.00;58600.66;4936764;29;20034;-73
2023/07/13 02:10:07;;;;;;;3.42;1.30;;;;;;;-145.41;100.00;58600.66;4934621;29;20058;-74
2023/07/13 02:12:33;;;;;;;3.08;1.20;;;;;;;-145.41;100.00;58600.66;4949410;28;20031;-74
2023/07/13 02:14:59;;;;;;;3.42;1.20;;;;;;;-145.41;100.00;58600.66;4929361;29;20122;-74
2023/07/13 02:17:26;;;;;;;1.75;0.80;;;;;;;-145.41;100.00;58600.66;4933774;29;20040;-74
2023/07/13 02:19:51;;;;;;;2.83;1.23;;;;;;;-145.41;100.00;58600.66;4933010;29;20036;-74
2023/07/13 02:22:16;;;;;;;3.20;1.13;;;;;;;-145.41;100.00;58600.66;4923032;29;20371;-73
2023/07/13 02:24:41;;;;;;;3.28;1.10;;;;;;;-145.41;100.00;58600.66;4933022;29;20086;-74
2023/07/13 02:27:07;;;;;;;2.47;1.23;;;;;;;-145.41;100.00;58600.66;4934992;29;20047;-74
2023/07/13 02:29:32;;;;;;;3.00;1.25;;;;;;;-145.41;100.00;58600.66;4929541;29;20051;-74
2023/07/13 02:31:57;;;;;;;4.50;1.30;;;;;;;-145.41;100.00;58600.66;4948728;28;20042;-74
2023/07/13 02:34:23;;;;;;;2.88;1.23;;;;;;;-145.41;100.00;58600.66;4931369;29;20039;-74
2023/07/13 02:36:48;;;;;;;3.15;1.30;;;;;;;-145.41;100.00;58600.66;4927462;29;20044;-74
2023/07/13 02:39:14;;;;;;;3.85;1.15;;;;;;;-145.41;100.00;58600.66;4933412;29;20047;-74
2023/07/13 02:41:39;;;;;;;2.17;1.05;;;;;;;-145.41;100.00;58600.66;4932556;29;20039;-74
2023/07/13 02:44:04;;;;;;;2.60;1.20;;;;;;;-145.41;100.00;58600.66;4931577;29;20042;-74
2023/07/13 02:46:35;;;;;;;2.58;1.10;;;;;;;-145.41;100.00;58600.66;4930116;29;20063;-74
2023/07/13 02:49:01;;;;;;;2.58;1.23;;;;;;;-145.41;100.00;58600.66;4949206;29;20035;-74
2023/07/13 02:51:27;;;;;;;5.10;1.35;;;;;;;-145.41;100.00;58600.66;4934246;29;20035;-74
2023/07/13 02:53:52;;;;;;;2.70;1.13;;;;;;;-145.41;100.00;58600.66;4948817;28;20380;-74
2023/07/13 02:56:23;;;;;;;4.25;1.10;;;;;;;-145.41;100.00;58600.66;4932780;29;20051;-76
2023/07/13 02:58:48;;;;;;;3.28;1.35;;;;;;;-145.41;100.00;58600.66;4948400;28;20521;-76
2023/07/13 03:01:18;;;;;;;2.90;1.13;;;;;;;-145.41;100.00;58600.66;4949141;28;20142;-76
2023/07/13 03:03:45;;;;;;;6.63;1.45;;;;;;;-145.41;100.00;58600.66;4947819;28;20032;-77
2023/07/13 03:06:11;;;;;;;4.32;1.40;;;;;;;-145.41;100.00;58600.66;4947879;29;20031;-76
2023/07/13 03:08:45;;;;;;;3.55;1.30;;;;;;;-145.41;100.00;58600.66;4931008;29;20035;-76
2023/07/13 03:11:16;;;;;;;2.67;1.20;;;;;;;-145.41;100.00;58600.66;4932899;29;20024;-76
2023/07/13 03:13:42;;;;;;;2.90;1.00;;;;;;;-145.41;100.00;58600.66;4934102;28;20039;-76
2023/07/13 03:16:10;;;;;;;5.10;1.20;;;;;;;-145.41;100.00;58600.66;4932624;29;20059;-76
2023/07/13 03:18:36;;;;;;;2.85;1.17;;;;;;;-145.41;100.00;58600.66;4948547;28;20035;-76
2023/07/13 03:21:05;;;;;;;5.03;1.30;;;;;;;-145.41;100.00;58600.66;4946703;29;20098;-76
2023/07/13 03:23:30;;;;;;;4.60;1.20;;;;;;;-145.41;100.00;58600.66;4930739;29;20028;-76
2023/07/13 03:26:18;;;;;;;2.97;1.25;;;;;;;-145.41;100.00;58600.66;4937655;28;20063;-74
2023/07/13 03:28:44;;;;;;;5.80;1.50;;;;;;;-145.41;100.00;58600.66;4947054;29;20031;-74
2023/07/13 03:31:17;;;;;;;3.90;1.48;;;;;;;-145.41;100.00;58600.66;4948586;28;20032;-73
2023/07/13 03:33:43;;;;;;;3.50;1.48;;;;;;;-145.41;100.00;58600.66;4949143;28;20126;-74
2023/07/13 03:36:18;;;;;;;5.05;1.70;;;;;;;-145.41;100.00;58600.66;4948658;28;20124;-74
2023/07/13 03:38:55;;;;;;;5.97;1.52;;;;;;;-145.41;100.00;58600.66;4920971;29;20028;-74
2023/07/13 03:41:25;;;;;;;2.75;1.50;;;;;;;-145.41;100.00;58600.66;4938657;28;20034;-73
2023/07/13 03:43:53;;;;;;;4.68;1.50;;;;;;;-145.41;100.00;58600.66;4938951;29;20495;-74
2023/07/13 03:46:20;;;;;;;3.17;1.42;;;;;;;-145.41;100.00;58600.66;4934884;29;20031;-74
2023/07/13 03:48:47;;;;;;;3.88;1.70;;;;;;;-145.41;100.00;58600.66;4926881;29;20044;-73
2023/07/13 03:51:14;;;;;;;3.78;1.80;;;;;;;-145.41;100.00;58600.66;4936320;29;20059;-74
2023/07/13 03:53:42;;;;;;;4.22;2.13;;;;;;;-145.41;100.00;58600.66;4946073;29;20664;-76
2023/07/13 03:56:09;;;;;;;5.30;2.50;;;;;;;-145.41;100.00;58600.66;4946064;28;20035;-76
2023/07/13 03:58:40;;;;;;;3.20;1.77;;;;;;;-145.41;100.00;58600.66;4934935;29;20032;-77
2023/07/13 04:01:21;;;;;;;6.13;2.55;;;;;;;-145.41;100.00;58600.66;4948631;28;20032;-76
2023/07/13 04:03:47;;;;;;;5.10;1.98;;;;;;;-145.41;100.00;58600.66;4924422;29;20054;-77
2023/07/13 04:06:21;;;;;;;5.70;1.80;;;;;;;-145.41;100.00;58600.66;4946209;28;20060;-76
2023/07/13 04:08:50;;;;;;;7.55;2.13;;;;;;;-145.41;100.00;58600.66;4929511;29;20123;-76
2023/07/13 04:11:15;;;;;;;4.03;1.98;;;;;;;-145.41;100.00;58600.66;4935877;29;20036;-76
2023/07/13 04:13:41;;;;;;;3.33;1.55;;;;;;;-145.41;100.00;58600.66;4928551;29;20376;-77
2023/07/13 04:16:06;;;;;;;5.72;2.05;;;;;;;-145.41;100.00;58600.66;4926475;29;20432;-77
2023/07/13 04:18:32;;;;;;;4.47;1.70;;;;;;;-145.41;100.00;58600.66;4926907;29;20444;-77
2023/07/13 04:20:57;;;;;;;6.07;1.38;;;;;;;-145.41;100.00;58600.66;4928494;29;20063;-77
2023/07/13 04:23:22;;;;;;;3.95;1.75;;;;;;;-145.41;100.00;58600.66;4946095;28;20040;-77
2023/07/13 04:25:52;;;;;;;4.63;1.48;;;;;;;-145.41;100.00;58600.66;4922986;29;20455;-77
2023/07/13 04:28:18;;;;;;;5.15;1.65;;;;;;;-145.41;100.00;58600.66;4911782;29;20435;-76
2023/07/13 04:30:44;;;;;;;3.28;1.35;;;;;;;-145.41;100.00;58600.66;4921676;29;20368;-77
2023/07/13 04:33:10;;;;;;;3.85;1.98;;;;;;;-145.41;100.00;58600.66;4926472;29;20032;-77
2023/07/13 04:35:35;;;;;;;2.90;1.50;;;;;;;-145.41;100.00;58600.66;4930332;29;20047;-76
2023/07/13 04:38:01;;;;;;;4.38;1.92;;;;;;;-145.41;100.00;58600.66;4928209;29;20035;-76
2023/07/13 04:40:27;;;;;;;5.47;2.25;;;;;;;-145.41;100.00;58600.66;4927778;29;20059;-76
2023/07/13 04:42:53;;;;;;;6.60;2.00;;;;;;;-145.41;100.00;58600.66;4926726;29;20095;-73
2023/07/13 04:45:19;;;;;;;4.63;1.85;;;;;;;-145.41;100.00;58600.66;4925067;29;20040;-74
2023/07/13 04:47:44;;;;;;;3.65;1.70;;;;;;;-145.41;100.00;58600.66;4929423;29;20110;-74
2023/07/13 04:50:10;;;;;;;4.35;1.80;;;;;;;-145.41;100.00;58600.66;4928673;29;20066;-74
2023/07/13 04:52:36;;;;;;;5.00;1.73;;;;;;;-145.41;100.00;58600.66;4927651;29;20046;-76
2023/07/13 04:55:02;;;;;;;4.50;3.03;;;;;;;-145.41;100.00;58600.66;4929137;29;20031;-76
2023/07/13 04:57:27;;;;;;;4.60;2.10;;;;;;;-145.41;100.00;58600.66;4928329;29;20050;-76
2023/07/13 04:59:53;;;;;;;2.80;1.73;;;;;;;-145.41;100.00;58600.66;4930658;29;20126;-77
2023/07/13 05:02:20;;;;;;;5.30;1.92;;;;;;;-145.41;100.00;58600.66;4929315;29;20035;-77
2023/07/13 05:04:49;;;;;;;5.38;1.50;;;;;;;-145.41;100.00;58600.66;4947753;28;20051;-77
2023/07/13 05:07:15;;;;;;;4.50;1.98;;;;;;;-145.41;100.00;58600.66;4929119;29;20040;-76
2023/07/13 05:09:40;;;;;;;4.45;1.55;;;;;;;-145.41;100.00;58600.66;4927576;29;20028;-76
2023/07/13 05:12:08;;;;;;;2.95;1.42;;;;;;;-145.41;100.00;58600.66;4927474;29;20575;-76
2023/07/13 05:14:33;;;;;;;4.15;1.70;;;;;;;-145.41;100.00;58600.66;4929733;29;20821;-76
2023/07/13 05:16:59;;;;;;;6.68;2.35;;;;;;;-145.41;100.00;58600.66;4932014;29;20032;-77
2023/07/13 05:19:24;;;;;;;3.80;1.58;;;;;;;-145.41;100.00;58600.66;4932692;29;20055;-77
2023/07/13 05:21:49;;;;;;;4.07;1.75;;;;;;;-145.41;100.00;58600.66;4935006;28;20518;-76
2023/07/13 05:24:15;;;;;;;4.32;1.48;;;;;;;-145.41;100.00;58600.66;4933512;29;20040;-77
2023/07/13 05:26:40;;;;;;;4.05;1.90;;;;;;;-145.41;100.00;58600.66;4929948;29;20082;-76
2023/07/13 05:29:05;;;;;;;4.88;1.77;;;;;;;-145.41;100.00;58600.66;4932492;29;20068;-77
2023/07/13 05:31:31;;;;;;;4.90;1.70;;;;;;;-145.41;100.00;58600.66;4927078;29;20769;-77
2023/07/13 05:33:56;;;;;;;3.90;1.60;;;;;;;-145.41;100.00;58600.66;4933420;29;20050;-76
2023/07/13 05:36:21;;;;;;;4.47;1.73;;;;;;;-145.41;100.00;58600.66;4927650;29;20043;-76
2023/07/13 05:38:47;;;;;;;4.28;1.58;;;;;;;-145.41;100.00;58600.66;4933190;29;20107;-76
2023/07/13 05:41:15;;;;;;;3.78;1.63;;;;;;;-145.41;100.00;58600.66;4932587;29;20063;-76
2023/07/13 05:43:40;;;;;;;3.90;1.92;;;;;;;-145.41;100.00;58600.66;4924179;29;20087;-76
2023/07/13 05:46:05;;;;;;;4.05;1.63;;;;;;;-145.41;100.00;58600.66;4940217;29;20035;-77
2023/07/13 05:48:31;;;;;;;4.68;2.00;;;;;;;-145.41;100.00;58600.66;4931919;29;20047;-76
2023/07/13 05:50:56;;;;;;;4.35;1.80;;;;;;;-145.41;100.00;58600.66;4931367;29;20032;-76
2023/07/13 05:53:21;;;;;;;4.70;1.60;;;;;;;-145.41;100.00;58600.66;4933675;29;20121;-76
2023/07/13 05:55:47;;;;;;;5.20;2.22;;;;;;;-145.41;100.00;58600.66;4931103;29;20041;-76
2023/07/13 05:58:13;;;;;;;4.35;1.60;;;;;;;-145.41;100.00;58600.66;4940492;29;20115;-76
2023/07/13 06:00:39;;;;;;;4.22;2.00;;;;;;;-145.41;100.00;58600.66;4934149;29;20044;-76
2023/07/13 06:03:06;;;;;;;6.68;3.45;;;;;;;-145.41;100.00;58600.66;4933690;29;20058;-76
2023/07/13 06:05:34;;;;;;;5.55;3.50;;;;;;;-145.41;100.00;58600.66;4932974;29;20032;-76
2023/07/13 06:08:00;;;;;;;4.90;2.97;;;;;;;-145.41;100.00;58600.66;4939358;29;20525;-77
2023/07/13 06:10:25;;;;;;;4.00;2.47;;;;;;;-145.41;100.00;58600.66;4929913;28;20152;-76
2023/07/13 06:12:51;;;;;;;5.57;3.47;;;;;;;-145.41;100.00;58600.66;4926113;29;20035;-77
2023/07/13 06:15:16;;;;;;;4.57;3.20;;;;;;;-145.41;100.00;58600.66;4932311;29;20043;-76
2023/07/13 06:17:42;;;;;;;5.43;2.60;;;;;;;-145.41;100.00;58600.66;4928454;29;20040;-76
2023/07/13 06:20:07;;;;;;;7.45;2.20;;;;;;;-145.41;100.00;58600.66;4926960;29;20048;-76
2023/07/13 06:22:33;;;;;;;5.18;2.25;;;;;;;-145.41;100.00;58600.66;4933136;29;20051;-77
2023/07/13 06:24:58;;;;;;;7.25;3.38;;;;;;;-145.41;100.00;58600.66;4927276;29;20443;-76
2023/07/13 06:27:23;;;;;;;3.92;2.33;;;;;;;-145.41;100.00;58600.66;4926386;29;20384;-76
2023/07/13 06:29:49;;;;;;;3.90;1.83;;;;;;;-145.41;100.00;58600.66;4931787;29;20627;-77
2023/07/13 06:32:14;;;;;;;4.45;2.10;;;;;;;-145.41;100.00;58600.66;4927163;29;20032;-76
2023/07/13 06:34:39;;;;;;;2.53;1.35;;;;;;;-145.41;100.00;58600.66;4928843;29;20043;-77
2023/07/13 06:37:05;;;;;;;4.22;1.70;;;;;;;-145.41;100.00;58600.66;4932790;29;20027;-77
2023/07/13 06:39:30;;;;;;;6.30;2.22;;;;;;;-145.41;100.00;58600.66;4924977;29;20067;-77
2023/07/13 06:41:55;;;;;;;4.07;1.90;;;;;;;-145.41;100.00;58600.66;4933159;29;20032;-76
2023/07/13 06:44:21;;;;;;;5.40;1.90;;;;;;;-145.41;100.00;58600.66;4931221;29;20486;-77
2023/07/13 06:46:46;;;;;;;4.63;2.00;;;;;;;-145.41;100.00;58600.66;4929615;29;20518;-77
2023/07/13 06:49:11;;;;;;;4.55;1.50;;;;;;;-145.41;100.00;58600.66;4927063;29;20051;-76
2023/07/13 06:51:37;;;;;;;4.63;1.25;;;;;;;-145.41;100.00;58600.66;4931706;29;20055;-76
2023/07/13 06:54:03;;;;;;;2.53;0.98;;;;;;;-145.41;100.00;58600.66;4930395;28;20055;-77
2023/07/13 06:56:28;;;;;;;2.72;0.90;;;;;;;-145.41;100.00;58600.66;4925551;29;20035;-76
2023/07/13 06:58:53;;;;;;;2.63;0.80;;;;;;;-145.41;100.00;58600.66;4931703;29;20039;-76
2023/07/13 07:01:19;;;;;;;3.72;1.02;;;;;;;-145.41;100.00;58600.66;4923115;29;20028;-77
2023/07/13 07:03:44;;;;;;;4.35;1.10;;;;;;;-145.41;100.00;58600.66;4925789;29;20383;-76
2023/07/13 07:06:16;;;;;;;3.83;1.20;;;;;;;-145.41;100.00;58600.66;4935169;29;20497;-76
2023/07/13 07:08:42;;;;;;;4.25;1.20;;;;;;;-145.41;100.00;58600.66;4934829;29;20561;-76
2023/07/13 07:11:22;;;;;;;4.18;1.75;;;;;;;-145.41;100.00;58600.66;4928706;29;20043;-77
2023/07/13 07:13:48;;;;;;;4.93;1.10;;;;;;;-145.41;100.00;58600.66;4946367;29;20657;-76
2023/07/13 07:16:13;;;;;;;4.28;1.67;;;;;;;-145.41;100.00;58600.66;4924595;29;20035;-77
2023/07/13 07:18:39;;;;;;;2.33;0.95;;;;;;;-145.41;100.00;58600.66;4928907;29;20121;-76
2023/07/13 07:21:04;;;;;;;3.65;0.88;;;;;;;-145.41;100.00;58600.66;4931876;29;20040;-77
2023/07/13 07:23:30;;;;;;;4.15;1.35;;;;;;;-145.41;100.00;58600.66;4923876;29;20122;-77
2023/07/13 07:25:55;;;;;;;3.00;0.93;;;;;;;-145.41;100.00;58600.66;4947630;29;20039;-77
2023/07/13 07:28:21;;;;;;;4.10;1.17;;;;;;;-145.41;100.00;58600.66;4932426;29;20036;-76
2023/07/13 07:30:47;;;;;;;2.65;0.90;;;;;;;-145.41;100.00;58600.66;4924649;29;20133;-76
2023/07/13 07:33:13;;;;;;;2.70;0.95;;;;;;;-145.41;100.00;58600.66;4930150;29;20098;-77
2023/07/13 07:35:39;;;;;;;4.55;1.20;;;;;;;-145.41;100.00;58600.66;4930509;29;20054;-76
2023/07/13 07:38:04;;;;;;;4.25;1.08;;;;;;;-145.41;100.00;58600.66;4929748;29;20027;-76
2023/07/13 07:40:29;;;;;;;5.00;1.10;;;;;;;-145.41;100.00;58600.66;4929996;29;20166;-77
2023/07/13 07:42:55;;;;;;;2.88;1.30;;;;;;;-145.41;100.00;58600.66;4927616;29;20537;-77
2023/07/13 07:45:21;;;;;;;2.83;1.20;;;;;;;-145.41;100.00;58600.66;4948541;29;20479;-77
2023/07/13 07:47:46;;;;;;;2.85;1.30;;;;;;;-145.41;100.00;58600.66;4924864;29;20035;-77
2023/07/13 07:50:12;;;;;;;3.75;1.02;;;;;;;-145.41;100.00;58600.66;4930389;29;20062;-77
2023/07/13 07:52:38;;;;;;;3.78;1.10;;;;;;;-145.41;100.00;58600.66;4928330;29;20186;-77
2023/07/13 07:55:05;;;;;;;2.83;1.15;;;;;;;-145.41;100.00;58600.66;4926029;29;20566;-77
2023/07/13 07:57:30;;;;;;;3.35;1.38;;;;;;;-145.41;100.00;58600.66;4930493;29;20023;-77
2023/07/13 07:59:56;;;;;;;5.28;1.95;;;;;;;-145.41;100.00;58600.66;4927182;29;20615;-77
2023/07/13 08:02:21;;;;;;;3.33;1.30;;;;;;;-145.41;100.00;58600.66;4929932;29;20055;-77
2023/07/13 08:04:46;;;;;;;3.33;1.00;;;;;;;-145.41;100.00;58600.66;4925456;29;20039;-76
2023/07/13 08:07:12;;;;;;;4.43;1.17;;;;;;;-145.41;100.00;58600.66;4929618;29;20043;-77
2023/07/13 08:09:37;;;;;;;7.97;1.38;;;;;;;-145.41;100.00;58600.66;4932708;29;20067;-77
2023/07/13 08:12:03;;;;;;;3.00;1.10;;;;;;;-145.41;100.00;58600.66;4946276;29;20040;-77
2023/07/13 08:14:28;;;;;;;3.50;0.93;;;;;;;-145.41;100.00;58600.66;4927303;29;20110;-77
2023/07/13 08:16:53;;;;;;;2.78;1.00;;;;;;;-145.41;100.00;58600.66;4930733;29;20032;-77
2023/07/13 08:19:19;;;;;;;2.75;1.25;;;;;;;-145.41;100.00;58600.66;4924510;29;20124;-77
2023/07/13 08:21:44;;;;;;;2.17;0.88;;;;;;;-145.41;100.00;58600.66;4926585;29;20126;-77
2023/07/13 08:24:09;;;;;;;6.07;1.35;;;;;;;-145.41;100.00;58600.66;4933381;29;20034;-76
2023/07/13 08:26:35;;;;;;;2.30;0.90;;;;;;;-145.41;100.00;58600.66;4922201;29;20036;-77
2023/07/13 08:29:00;;;;;;;2.30;0.95;;;;;;;-145.41;100.00;58600.66;4930039;29;20071;-77
2023/07/13 08:31:26;;;;;;;4.28;1.20;;;;;;;-145.41;100.00;58600.66;4946927;28;20115;-76
2023/07/13 08:33:51;;;;;;;3.03;0.98;;;;;;;-145.41;100.00;58600.66;4923018;29;20115;-76
2023/07/13 08:36:16;;;;;;;4.30;1.02;;;;;;;-145.41;100.00;58600.66;4927899;29;20027;-77
2023/07/13 08:38:42;;;;;;;3.13;0.90;;;;;;;-145.41;100.00;58600.66;4929196;29;20064;-77
2023/07/13 08:41:18;;;;;;;5.22;1.65;;;;;;;-145.41;100.00;58600.66;4925150;29;20087;-77
2023/07/13 08:43:49;;;;;;;4.72;1.30;;;;;;;-145.41;100.00;58600.66;4930149;29;20114;-77
2023/07/13 08:46:14;;;;;;;2.50;1.00;;;;;;;-145.41;100.00;58600.66;4928353;29;20054;-76
2023/07/13 08:49:03;;;;;;;2.83;1.17;;;;;;;-145.41;100.00;58600.66;4924812;29;20048;-77
2023/07/13 08:51:39;;;;;;;4.45;1.30;;;;;;;-145.41;100.00;58600.66;4931079;29;20040;-77
2023/07/13 08:54:17;;;;;;;3.53;1.30;;;;;;;-145.41;100.00;58600.66;4926791;29;20554;-77
2023/07/13 08:56:46;;;;;;;4.35;1.20;;;;;;;-145.41;100.00;58600.66;4924260;29;20024;-77
2023/07/13 08:59:16;;;;;;;4.22;1.20;;;;;;;-145.41;100.00;58600.66;4929530;29;20028;-77
2023/07/13 09:01:42;;;;;;;3.28;1.50;;;;;;;-145.41;100.00;58600.66;4960285;22;20054;-76
2023/07/13 09:04:22;;;;;;;6.22;1.80;;;;;;;-145.41;100.00;58600.66;4987564;28;20092;-76
2023/07/13 09:07:02;;;;;;;5.40;2.05;;;;;;;-145.41;100.00;58600.66;4996523;28;20390;-76
2023/07/13 09:10:03;;;;;;;4.55;1.40;;;;;;;-145.41;100.00;58600.66;4987811;28;20035;-76
2023/07/13 09:12:39;;;;;;;3.53;1.23;;;;;;;-145.41;100.00;58600.66;4977682;28;20138;-76
2023/07/13 09:15:20;;;;;;;5.07;1.48;;;;;;;-145.41;100.00;58600.66;4988725;28;20120;-76
2023/07/13 09:17:50;;;;;;;3.17;1.30;;;;;;;-145.41;100.00;58600.66;4990771;28;20026;-76
2023/07/13 09:20:27;;;;;;;3.35;1.10;;;;;;;-145.41;100.00;58600.66;4988169;28;20042;-76
2023/07/13 09:22:52;;;;;;;4.00;1.17;;;;;;;-145.41;100.00;58600.66;4990290;28;20121;-76
2023/07/13 09:25:40;;;;;;;3.63;1.35;;;;;;;-145.41;100.00;58600.66;4989243;28;20161;-77
2023/07/13 09:28:14;;;;;;;4.93;1.25;;;;;;;-145.41;100.00;58600.66;4989452;28;20045;-76
2023/07/13 09:31:02;;;;;;;4.03;1.70;;;;;;;-145.41;100.00;58600.66;4990243;28;20034;-76
2023/07/13 09:33:29;;;;;;;4.65;1.35;;;;;;;-145.41;100.00;58600.66;4990404;28;20401;-76
2023/07/13 09:35:58;;;;;;;2.47;1.00;;;;;;;-145.41;100.00;58600.66;4990816;28;20037;-76
2023/07/13 09:38:25;;;;;;;4.88;1.33;;;;;;;-145.41;100.00;58600.66;4993374;28;20117;-76
2023/07/13 09:41:23;;;;;;;6.47;1.85;;;;;;;-145.41;100.00;58600.66;4992283;28;20041;-76
2023/07/13 09:44:09;;;;;;;4.85;1.13;;;;;;;-145.41;100.00;58600.66;4989520;28;20038;-76
2023/07/13 09:46:35;;;;;;;2.72;1.30;;;;;;;-145.41;100.00;58600.66;4990539;28;20085;-76
2023/07/13 09:49:00;;;;;;;4.50;1.30;;;;;;;-145.41;100.00;58600.66;4990088;28;20448;-76
2023/07/13 09:51:25;;;;;;;3.38;1.30;;;;;;;-145.41;100.00;58600.66;4988240;28;20034;-76
2023/07/13 09:53:51;;;;;;;5.32;1.30;;;;;;;-145.41;100.00;58600.66;4990682;28;20034;-76
2023/07/13 09:56:26;;;;;;;3.95;1.15;;;;;;;-145.41;100.00;58600.66;4990638;28;20501;-76
2023/07/13 09:58:52;;;;;;;3.80;1.27;;;;;;;-145.41;100.00;58600.66;4989594;28;20516;-76
2023/07/13 10:01:35;;;;;;;2.75;0.98;;;;;;;-145.41;100.00;58600.66;4990431;28;20511;-76
2023/07/13 10:04:01;;;;;;;5.05;1.70;;;;;;;-145.41;100.00;58600.66;4993006;28;20034;-76
2023/07/13 10:06:27;;;;;;;4.15;1.00;;;;;;;-145.41;100.00;58600.66;4993817;28;20042;-76
2023/07/13 10:08:55;;;;;;;3.08;0.90;;;;;;;-145.41;100.00;58600.66;4993536;28;20038;-76
2023/07/13 10:11:26;;;;;;;2.58;0.98;;;;;;;-145.41;100.00;58600.66;4993942;28;20034;-76
2023/07/13 10:14:00;;;;;;;3.53;1.10;;;;;;;-145.41;100.00;58600.66;4991752;28;20045;-76
2023/07/13 10:16:32;;;;;;;4.63;1.20;;;;;;;-145.41;100.00;58600.66;4992805;28;20030;-76
2023/07/13 10:19:01;;;;;;;4.60;1.30;;;;;;;-145.41;100.00;58600.66;4993412;28;20038;-77
2023/07/13 10:21:33;;;;;;;4.35;1.23;;;;;;;-145.41;100.00;58600.66;4992493;28;20042;-76
2023/07/13 10:24:18;;;;;;;3.40;1.27;;;;;;;-145.41;100.00;58600.66;4993618;28;20109;-76
2023/07/13 10:27:16;;;;;;;4.18;1.35;;;;;;;-145.41;100.00;58600.66;4992362;28;20045;-76
2023/07/13 10:29:53;;;;;;;3.28;1.00;;;;;;;-145.41;100.00;58600.66;4993084;28;20111;-76
2023/07/13 10:32:22;;;;;;;4.80;1.02;;;;;;;-145.41;100.00;58600.66;4993592;28;20046;-76
2023/07/13 10:34:50;;;;;;;2.38;0.80;;;;;;;-145.41;100.00;58600.66;4993565;28;20041;-77
2023/07/13 10:37:20;;;;;;;2.13;0.90;;;;;;;-145.41;100.00;58600.66;4993165;28;20038;-76
2023/07/13 10:39:46;;;;;;;3.35;1.17;;;;;;;-145.41;100.00;58600.66;4990223;28;20489;-76
2023/07/13 10:42:18;;;;;;;5.40;1.27;;;;;;;-145.41;100.00;58600.66;4993367;28;20118;-76
2023/07/13 10:44:43;;;;;;;3.70;1.40;;;;;;;-145.41;100.00;58600.66;4993410;28;20046;-76
2023/07/13 10:47:17;;;;;;;2.65;0.90;;;;;;;-145.41;100.00;58600.66;4993029;28;20045;-76
2023/07/13 10:49:44;;;;;;;3.47;1.00;;;;;;;-145.41;100.00;58600.66;4991687;28;20369;-76
2023/07/13 10:52:55;;;;;;;2.78;1.10;;;;;;;-145.41;100.00;58600.66;4990368;28;20034;-76
2023/07/13 10:55:53;;;;;;;4.20;1.23;;;;;;;-145.41;100.00;58600.66;4989830;28;20038;-76
2023/07/13 10:58:21;;;;;;;2.63;0.90;;;;;;;-145.41;100.00;58600.66;4981846;28;20106;-76
2023/07/13 11:00:50;;;;;;;3.85;1.10;;;;;;;-145.41;100.00;58600.66;4991961;28;20446;-77
2023/07/13 11:03:18;;;;;;;2.92;0.90;;;;;;;-145.41;100.00;58600.66;4989677;28;20030;-76
2023/07/13 11:05:48;;;;;;;2.90;0.90;;;;;;;-145.41;100.00;58600.66;4992962;28;20117;-77
2023/07/13 11:08:37;;;;;;;5.22;1.23;;;;;;;-145.41;100.00;58600.66;4990665;28;20400;-77
2023/07/13 11:11:03;;;;;;;2.53;0.85;;;;;;;-145.41;100.00;58600.66;4992532;28;20030;-77
2023/07/13 11:13:49;;;;;;;4.20;1.30;;;;;;;-145.41;100.00;58600.66;4992770;28;20421;-77